sensor_id;sensor_type;location;lat;lon;timestamp;pressure;altitude;pressure_sealevel;temperature;humidity
32452;BME280;45528;52.102;5.242;2024-02-16T00:05:42;100527.0;;;18.29;56.37
32452;BME280;45528;52.102;5.242;2024-02-16T00:07:18;100524.0;;;18.34;56.0
32452;BME280;45528;52.102;5.242;2024-02-16T00:08:54;100528.0;;;18.18;56.47
32452;BME280;45528;52.102;5.242;2024-02-16T00:13:43;100522.0;;;18.3;56.1
32452;BME280;45528;52.102;5.242;2024-02-16T00:15:19;100523.0;;;18.23;56.07
32452;BME280;45528;52.102;5.242;2024-02-16T00:18:34;100521.0;;;18.27;56.04
32452;BME280;45528;52.102;5.242;2024-02-16T00:20:10;100520.0;;;18.2;56.36
32452;BME280;45528;52.102;5.242;2024-02-16T00:21:46;100516.0;;;18.27;55.92
32452;BME280;45528;52.102;5.242;2024-02-16T00:24:58;100521.0;;;18.16;56.29
32452;BME280;45528;52.102;5.242;2024-02-16T00:26:36;100520.0;;;18.25;56.12
32452;BME280;45528;52.102;5.242;2024-02-16T00:28:12;100521.0;;;18.2;56.29
32452;BME280;45528;52.102;5.242;2024-02-16T00:33:00;100512.0;;;18.11;56.09
32452;BME280;45528;52.102;5.242;2024-02-16T00:34:37;100519.0;;;18.23;56.13
32452;BME280;45528;52.102;5.242;2024-02-16T00:36:12;100519.0;;;18.27;56.18
32452;BME280;45528;52.102;5.242;2024-02-16T00:41:00;100517.0;;;18.21;56.23
32452;BME280;45528;52.102;5.242;2024-02-16T00:42:37;100515.0;;;18.14;56.2
32452;BME280;45528;52.102;5.242;2024-02-16T00:45:49;100516.0;;;18.02;56.6
32452;BME280;45528;52.102;5.242;2024-02-16T00:49:01;100512.0;;;18.07;56.51
32452;BME280;45528;52.102;5.242;2024-02-16T00:53:49;100514.0;;;18.13;56.31
32452;BME280;45528;52.102;5.242;2024-02-16T00:55:25;100509.0;;;17.95;56.79
32452;BME280;45528;52.102;5.242;2024-02-16T01:00:16;100510.0;;;18.13;55.97
32452;BME280;45528;52.102;5.242;2024-02-16T01:01:52;100507.0;;;18.09;56.1
32452;BME280;45528;52.102;5.242;2024-02-16T01:06:41;100498.0;;;17.95;56.29
32452;BME280;45528;52.102;5.242;2024-02-16T01:08:16;100501.0;;;18.05;56.3
32452;BME280;45528;52.102;5.242;2024-02-16T01:09:53;100498.0;;;18.05;56.13
32452;BME280;45528;52.102;5.242;2024-02-16T01:13:05;100500.0;;;18.07;56.34
32452;BME280;45528;52.102;5.242;2024-02-16T01:14:41;100503.0;;;17.93;56.45
32452;BME280;45528;52.102;5.242;2024-02-16T01:17:53;100489.0;;;18.04;56.52
32452;BME280;45528;52.102;5.242;2024-02-16T01:21:05;100491.0;;;18.02;56.41
32452;BME280;45528;52.102;5.242;2024-02-16T01:22:42;100487.0;;;18.06;56.3
32452;BME280;45528;52.102;5.242;2024-02-16T01:27:30;100480.0;;;18.12;56.16
32452;BME280;45528;52.102;5.242;2024-02-16T01:29:06;100480.0;;;18.0;56.22
32452;BME280;45528;52.102;5.242;2024-02-16T01:33:54;100473.0;;;18.09;56.05
32452;BME280;45528;52.102;5.242;2024-02-16T01:35:30;100465.0;;;18.02;56.08
32452;BME280;45528;52.102;5.242;2024-02-16T01:37:07;100465.0;;;18.04;56.13
32452;BME280;45528;52.102;5.242;2024-02-16T01:40:19;100470.0;;;18.02;56.08
32452;BME280;45528;52.102;5.242;2024-02-16T01:45:08;100477.0;;;17.98;56.39
32452;BME280;45528;52.102;5.242;2024-02-16T01:48:20;100480.0;;;17.96;56.17
32452;BME280;45528;52.102;5.242;2024-02-16T01:51:33;100480.0;;;17.95;56.18
32452;BME280;45528;52.102;5.242;2024-02-16T01:54:48;100469.0;;;17.87;56.48
32452;BME280;45528;52.102;5.242;2024-02-16T01:58:00;100465.0;;;18.0;56.11
32452;BME280;45528;52.102;5.242;2024-02-16T02:01:12;100464.0;;;17.96;56.21
32452;BME280;45528;52.102;5.242;2024-02-16T02:02:48;100456.0;;;17.97;56.34
32452;BME280;45528;52.102;5.242;2024-02-16T02:09:14;100449.0;;;18.12;56.16
32452;BME280;45528;52.102;5.242;2024-02-16T02:15:38;100474.0;;;18.11;56.39
32452;BME280;45528;52.102;5.242;2024-02-16T02:17:15;100464.0;;;18.12;56.52
32452;BME280;45528;52.102;5.242;2024-02-16T02:18:51;100463.0;;;18.12;56.79
32452;BME280;45528;52.102;5.242;2024-02-16T02:23:39;100465.0;;;18.05;57.12
32452;BME280;45528;52.102;5.242;2024-02-16T02:25:15;100462.0;;;18.03;57.49
32452;BME280;45528;52.102;5.242;2024-02-16T02:31:41;100461.0;;;17.68;57.97
32452;BME280;45528;52.102;5.242;2024-02-16T02:36:30;100441.0;;;17.84;57.64
32452;BME280;45528;52.102;5.242;2024-02-16T02:38:06;100443.0;;;17.77;57.85
32452;BME280;45528;52.102;5.242;2024-02-16T02:39:42;100437.0;;;17.79;57.76
32452;BME280;45528;52.102;5.242;2024-02-16T02:50:55;100439.0;;;17.71;57.73
32452;BME280;45528;52.102;5.242;2024-02-16T02:54:07;100432.0;;;17.78;57.47
32452;BME280;45528;52.102;5.242;2024-02-16T02:57:19;100434.0;;;17.8;57.51
32452;BME280;45528;52.102;5.242;2024-02-16T02:58:55;100423.0;;;17.8;57.24
32452;BME280;45528;52.102;5.242;2024-02-16T03:06:56;100417.0;;;17.84;56.98
32452;BME280;45528;52.102;5.242;2024-02-16T03:10:08;100423.0;;;17.7;57.06
32452;BME280;45528;52.102;5.242;2024-02-16T03:11:45;100419.0;;;17.62;57.16
32452;BME280;45528;52.102;5.242;2024-02-16T03:13:24;100418.0;;;17.7;57.09
32452;BME280;45528;52.102;5.242;2024-02-16T03:24:37;100409.0;;;17.62;57.11
32452;BME280;45528;52.102;5.242;2024-02-16T03:26:14;100409.0;;;17.59;56.99
32452;BME280;45528;52.102;5.242;2024-02-16T03:31:03;100412.0;;;17.54;57.04
32452;BME280;45528;52.102;5.242;2024-02-16T03:42:16;100412.0;;;17.46;57.35
32452;BME280;45528;52.102;5.242;2024-02-16T03:45:28;100414.0;;;17.47;57.43
32452;BME280;45528;52.102;5.242;2024-02-16T03:48:40;100414.0;;;17.36;57.65
32452;BME280;45528;52.102;5.242;2024-02-16T03:51:54;100412.0;;;17.31;57.66
32452;BME280;45528;52.102;5.242;2024-02-16T03:55:07;100417.0;;;17.28;57.68
32452;BME280;45528;52.102;5.242;2024-02-16T03:58:19;100417.0;;;17.25;57.82
32452;BME280;45528;52.102;5.242;2024-02-16T04:01:31;100418.0;;;17.25;57.94
32452;BME280;45528;52.102;5.242;2024-02-16T04:04:43;100421.0;;;17.27;57.84
32452;BME280;45528;52.102;5.242;2024-02-16T04:07:56;100423.0;;;17.18;57.97
32452;BME280;45528;52.102;5.242;2024-02-16T04:12:46;100418.0;;;17.27;57.94
32452;BME280;45528;52.102;5.242;2024-02-16T04:19:11;100420.0;;;17.23;57.87
32452;BME280;45528;52.102;5.242;2024-02-16T04:20:47;100419.0;;;17.23;57.83
32452;BME280;45528;52.102;5.242;2024-02-16T04:22:23;100419.0;;;17.27;57.6
32452;BME280;45528;52.102;5.242;2024-02-16T04:25:35;100423.0;;;17.2;58.08
32452;BME280;45528;52.102;5.242;2024-02-16T04:27:11;100418.0;;;17.14;57.91
32452;BME280;45528;52.102;5.242;2024-02-16T04:28:47;100410.0;;;17.14;58.0
32452;BME280;45528;52.102;5.242;2024-02-16T04:33:36;100410.0;;;17.05;58.02
32452;BME280;45528;52.102;5.242;2024-02-16T04:35:12;100419.0;;;17.13;57.97
32452;BME280;45528;52.102;5.242;2024-02-16T04:40:00;100418.0;;;17.0;57.97
32452;BME280;45528;52.102;5.242;2024-02-16T04:41:36;100421.0;;;17.07;58.21
32452;BME280;45528;52.102;5.242;2024-02-16T04:43:12;100418.0;;;17.09;58.17
32452;BME280;45528;52.102;5.242;2024-02-16T04:46:24;100416.0;;;17.06;58.18
32452;BME280;45528;52.102;5.242;2024-02-16T04:48:03;100420.0;;;17.11;58.28
32452;BME280;45528;52.102;5.242;2024-02-16T04:49:39;100416.0;;;17.09;58.11
32452;BME280;45528;52.102;5.242;2024-02-16T04:52:51;100413.0;;;17.03;58.3
32452;BME280;45528;52.102;5.242;2024-02-16T04:54:27;100415.0;;;17.16;57.67
32452;BME280;45528;52.102;5.242;2024-02-16T04:56:04;100416.0;;;17.12;57.69
32452;BME280;45528;52.102;5.242;2024-02-16T04:57:40;100416.0;;;17.09;57.61
32452;BME280;45528;52.102;5.242;2024-02-16T05:00:52;100422.0;;;17.14;57.79
32452;BME280;45528;52.102;5.242;2024-02-16T05:02:29;100423.0;;;17.12;57.73
32452;BME280;45528;52.102;5.242;2024-02-16T05:10:31;100420.0;;;17.03;58.05
32452;BME280;45528;52.102;5.242;2024-02-16T05:13:43;100415.0;;;17.05;57.91
32452;BME280;45528;52.102;5.242;2024-02-16T05:15:20;100417.0;;;17.04;57.83
32452;BME280;45528;52.102;5.242;2024-02-16T05:16:56;100415.0;;;17.04;57.82
32452;BME280;45528;52.102;5.242;2024-02-16T05:18:32;100418.0;;;16.95;58.06
32452;BME280;45528;52.102;5.242;2024-02-16T05:23:22;100411.0;;;17.06;57.9
32452;BME280;45528;52.102;5.242;2024-02-16T05:24:58;100409.0;;;17.05;57.9
32452;BME280;45528;52.102;5.242;2024-02-16T05:28:12;100409.0;;;17.07;57.79
32452;BME280;45528;52.102;5.242;2024-02-16T05:29:48;100408.0;;;17.0;58.35
32452;BME280;45528;52.102;5.242;2024-02-16T05:34:36;100402.0;;;17.05;58.05
32452;BME280;45528;52.102;5.242;2024-02-16T05:37:51;100408.0;;;17.04;58.04
32452;BME280;45528;52.102;5.242;2024-02-16T05:39:30;100410.0;;;17.14;57.98
32452;BME280;45528;52.102;5.242;2024-02-16T05:42:43;100409.0;;;17.14;58.08
32452;BME280;45528;52.102;5.242;2024-02-16T05:45:55;100408.0;;;17.12;57.99
32452;BME280;45528;52.102;5.242;2024-02-16T05:49:07;100409.0;;;17.12;58.07
32452;BME280;45528;52.102;5.242;2024-02-16T05:50:43;100408.0;;;17.09;58.25
32452;BME280;45528;52.102;5.242;2024-02-16T05:52:19;100411.0;;;17.13;57.98
32452;BME280;45528;52.102;5.242;2024-02-16T05:55:31;100410.0;;;17.02;58.2
32452;BME280;45528;52.102;5.242;2024-02-16T05:58:44;100410.0;;;17.02;58.15
32452;BME280;45528;52.102;5.242;2024-02-16T06:00:20;100412.0;;;17.05;58.1
32452;BME280;45528;52.102;5.242;2024-02-16T06:03:33;100412.0;;;17.06;58.16
32452;BME280;45528;52.102;5.242;2024-02-16T06:05:09;100412.0;;;17.09;57.98
32452;BME280;45528;52.102;5.242;2024-02-16T06:06:45;100412.0;;;17.0;57.99
32452;BME280;45528;52.102;5.242;2024-02-16T06:09:58;100411.0;;;17.0;57.97
32452;BME280;45528;52.102;5.242;2024-02-16T06:11:36;100416.0;;;17.09;57.88
32452;BME280;45528;52.102;5.242;2024-02-16T06:13:15;100418.0;;;17.13;57.79
32452;BME280;45528;52.102;5.242;2024-02-16T06:16:27;100424.0;;;17.09;58.2
32452;BME280;45528;52.102;5.242;2024-02-16T06:18:03;100427.0;;;17.03;58.06
32452;BME280;45528;52.102;5.242;2024-02-16T06:19:39;100431.0;;;17.04;58.33
32452;BME280;45528;52.102;5.242;2024-02-16T06:24:28;100437.0;;;17.0;58.68
32452;BME280;45528;52.102;5.242;2024-02-16T06:26:06;100437.0;;;17.0;58.55
32452;BME280;45528;52.102;5.242;2024-02-16T06:27:42;100444.0;;;16.95;58.54
32452;BME280;45528;52.102;5.242;2024-02-16T06:30:54;100448.0;;;16.95;58.77
32452;BME280;45528;52.102;5.242;2024-02-16T06:32:30;100452.0;;;16.95;58.77
32452;BME280;45528;52.102;5.242;2024-02-16T06:34:06;100447.0;;;16.93;58.83
32452;BME280;45528;52.102;5.242;2024-02-16T06:43:44;100458.0;;;17.18;58.39
32452;BME280;45528;52.102;5.242;2024-02-16T06:45:20;100466.0;;;17.29;58.21
32452;BME280;45528;52.102;5.242;2024-02-16T06:46:59;100472.0;;;17.29;58.04
32452;BME280;45528;52.102;5.242;2024-02-16T06:48:35;100466.0;;;17.32;58.02
32452;BME280;45528;52.102;5.242;2024-02-16T06:51:47;100469.0;;;17.3;57.91
32452;BME280;45528;52.102;5.242;2024-02-16T06:54:59;100471.0;;;17.28;57.87
32452;BME280;45528;52.102;5.242;2024-02-16T06:58:13;100471.0;;;17.34;57.83
32452;BME280;45528;52.102;5.242;2024-02-16T06:59:49;100470.0;;;17.27;58.17
32452;BME280;45528;52.102;5.242;2024-02-16T07:12:41;100483.0;;;17.21;58.54
32452;BME280;45528;52.102;5.242;2024-02-16T07:15:54;100495.0;;;17.36;58.47
32452;BME280;45528;52.102;5.242;2024-02-16T07:20:42;100499.0;;;17.46;58.29
32452;BME280;45528;52.102;5.242;2024-02-16T07:22:18;100502.0;;;17.43;58.59
32452;BME280;45528;52.102;5.242;2024-02-16T07:27:08;100494.0;;;17.61;58.3
32452;BME280;45528;52.102;5.242;2024-02-16T07:28:44;100502.0;;;17.59;58.28
32452;BME280;45528;52.102;5.242;2024-02-16T07:30:21;100502.0;;;17.72;58.27
32452;BME280;45528;52.102;5.242;2024-02-16T07:33:33;100502.0;;;17.66;58.28
32452;BME280;45528;52.102;5.242;2024-02-16T07:36:45;100509.0;;;17.77;58.16
32452;BME280;45528;52.102;5.242;2024-02-16T07:46:25;100531.0;;;17.82;58.26
32452;BME280;45528;52.102;5.242;2024-02-16T07:51:14;100527.0;;;17.98;58.11
32452;BME280;45528;52.102;5.242;2024-02-16T07:57:38;100547.0;;;18.18;57.63
32452;BME280;45528;52.102;5.242;2024-02-16T08:02:27;100549.0;;;18.25;57.62
32452;BME280;45528;52.102;5.242;2024-02-16T08:07:15;100552.0;;;18.28;57.17
32452;BME280;45528;52.102;5.242;2024-02-16T08:08:51;100555.0;;;18.48;57.11
32452;BME280;45528;52.102;5.242;2024-02-16T08:16:53;100559.0;;;18.64;56.9
32452;BME280;45528;52.102;5.242;2024-02-16T08:21:43;100578.0;;;18.61;57.07
32452;BME280;45528;52.102;5.242;2024-02-16T08:23:19;100565.0;;;18.77;56.7
32452;BME280;45528;52.102;5.242;2024-02-16T08:28:08;100577.0;;;18.7;56.9
32452;BME280;45528;52.102;5.242;2024-02-16T08:42:34;100582.0;;;19.12;56.32
32452;BME280;45528;52.102;5.242;2024-02-16T08:44:10;100584.0;;;19.09;56.4
32452;BME280;45528;52.102;5.242;2024-02-16T08:45:47;100582.0;;;19.29;56.23
32452;BME280;45528;52.102;5.242;2024-02-16T08:48:59;100567.0;;;19.11;55.97
32452;BME280;45528;52.102;5.242;2024-02-16T08:50:35;100591.0;;;19.3;56.29
32452;BME280;45528;52.102;5.242;2024-02-16T08:55:23;100590.0;;;19.5;55.89
32452;BME280;45528;52.102;5.242;2024-02-16T08:58:36;100597.0;;;19.48;56.18
32452;BME280;45528;52.102;5.242;2024-02-16T09:03:25;100609.0;;;19.7;56.09
32452;BME280;45528;52.102;5.242;2024-02-16T09:09:49;100609.0;;;19.38;56.76
32452;BME280;45528;52.102;5.242;2024-02-16T09:17:53;100638.0;;;19.43;56.9
32452;BME280;45528;52.102;5.242;2024-02-16T09:22:42;100651.0;;;19.25;58.33
32452;BME280;45528;52.102;5.242;2024-02-16T09:25:59;100667.0;;;19.23;59.08
32452;BME280;45528;52.102;5.242;2024-02-16T09:27:35;100668.0;;;19.18;59.6
32452;BME280;45528;52.102;5.242;2024-02-16T09:37:13;100673.0;;;19.09;60.64
32452;BME280;45528;52.102;5.242;2024-02-16T09:38:49;100670.0;;;19.32;59.96
32452;BME280;45528;52.102;5.242;2024-02-16T09:40:25;100677.0;;;18.84;61.31
32452;BME280;45528;52.102;5.242;2024-02-16T09:43:37;100680.0;;;18.87;61.08
32452;BME280;45528;52.102;5.242;2024-02-16T09:46:53;100696.0;;;19.2;60.86
32452;BME280;45528;52.102;5.242;2024-02-16T09:48:30;100691.0;;;19.09;60.48
32452;BME280;45528;52.102;5.242;2024-02-16T09:58:08;100707.0;;;19.39;59.87
32452;BME280;45528;52.102;5.242;2024-02-16T09:59:47;100714.0;;;19.45;59.63
32452;BME280;45528;52.102;5.242;2024-02-16T10:06:12;100726.0;;;19.23;59.65
32452;BME280;45528;52.102;5.242;2024-02-16T10:07:49;100734.0;;;19.27;59.43
32452;BME280;45528;52.102;5.242;2024-02-16T10:16:04;100748.0;;;18.93;60.45
32452;BME280;45528;52.102;5.242;2024-02-16T10:27:21;100771.0;;;18.91;61.9
32452;BME280;45528;52.102;5.242;2024-02-16T10:28:58;100766.0;;;19.0;61.77
32452;BME280;45528;52.102;5.242;2024-02-16T10:30:36;100769.0;;;18.73;62.41
32452;BME280;45528;52.102;5.242;2024-02-16T10:35:27;100787.0;;;18.82;62.4
32452;BME280;45528;52.102;5.242;2024-02-16T10:37:06;100795.0;;;18.7;63.01
32452;BME280;45528;52.102;5.242;2024-02-16T10:38:43;100799.0;;;18.75;62.84
32452;BME280;45528;52.102;5.242;2024-02-16T10:43:37;100825.0;;;18.73;63.04
32452;BME280;45528;52.102;5.242;2024-02-16T10:50:03;100812.0;;;18.64;63.45
32452;BME280;45528;52.102;5.242;2024-02-16T10:51:42;100821.0;;;18.59;63.7
32452;BME280;45528;52.102;5.242;2024-02-16T10:53:23;100831.0;;;18.68;63.96
32452;BME280;45528;52.102;5.242;2024-02-16T10:58:17;100845.0;;;18.66;63.81
32452;BME280;45528;52.102;5.242;2024-02-16T10:59:55;100852.0;;;18.59;64.06
32452;BME280;45528;52.102;5.242;2024-02-16T11:08:11;100847.0;;;18.66;64.22
32452;BME280;45528;52.102;5.242;2024-02-16T11:11:26;100844.0;;;18.55;64.34
32452;BME280;45528;52.102;5.242;2024-02-16T11:13:03;100851.0;;;18.7;63.9
32452;BME280;45528;52.102;5.242;2024-02-16T11:14:40;100846.0;;;18.68;64.25
32452;BME280;45528;52.102;5.242;2024-02-16T11:16:17;100848.0;;;18.72;63.99
32452;BME280;45528;52.102;5.242;2024-02-16T11:21:11;100857.0;;;18.75;64.13
32452;BME280;45528;52.102;5.242;2024-02-16T11:22:48;100868.0;;;18.84;63.59
32452;BME280;45528;52.102;5.242;2024-02-16T11:26:09;100872.0;;;18.5;64.72
32452;BME280;45528;52.102;5.242;2024-02-16T11:27:47;100868.0;;;18.62;64.42
32452;BME280;45528;52.102;5.242;2024-02-16T11:29:25;100865.0;;;18.63;64.16
32452;BME280;45528;52.102;5.242;2024-02-16T11:31:01;100866.0;;;18.77;63.68
32452;BME280;45528;52.102;5.242;2024-02-16T11:34:21;100860.0;;;18.95;63.23
32452;BME280;45528;52.102;5.242;2024-02-16T11:37:36;100864.0;;;19.0;63.01
32452;BME280;45528;52.102;5.242;2024-02-16T11:40:54;100868.0;;;18.71;63.75
32452;BME280;45528;52.102;5.242;2024-02-16T11:44:07;100875.0;;;19.07;62.66
32452;BME280;45528;52.102;5.242;2024-02-16T11:45:43;100885.0;;;18.93;63.18
32452;BME280;45528;52.102;5.242;2024-02-16T11:50:40;100907.0;;;18.84;63.5
32452;BME280;45528;52.102;5.242;2024-02-16T11:52:16;100915.0;;;18.95;63.27
32452;BME280;45528;52.102;5.242;2024-02-16T11:58:45;100920.0;;;18.68;64.12
32452;BME280;45528;52.102;5.242;2024-02-16T12:00:21;100924.0;;;18.7;64.09
32452;BME280;45528;52.102;5.242;2024-02-16T12:05:15;100935.0;;;18.31;65.22
32452;BME280;45528;52.102;5.242;2024-02-16T12:11:48;100939.0;;;18.36;64.97
32452;BME280;45528;52.102;5.242;2024-02-16T12:13:24;100949.0;;;18.56;64.33
32452;BME280;45528;52.102;5.242;2024-02-16T12:18:20;100964.0;;;18.2;65.63
32452;BME280;45528;52.102;5.242;2024-02-16T12:19:56;100966.0;;;18.13;65.58
32452;BME280;45528;52.102;5.242;2024-02-16T12:26:25;100977.0;;;18.43;64.97
32452;BME280;45528;52.102;5.242;2024-02-16T12:39:18;100983.0;;;18.45;64.55
32452;BME280;45528;52.102;5.242;2024-02-16T12:40:55;100983.0;;;18.48;64.52
32452;BME280;45528;52.102;5.242;2024-02-16T12:45:43;101005.0;;;18.37;64.61
32452;BME280;45528;52.102;5.242;2024-02-16T13:01:50;101027.0;;;18.66;64.25
32452;BME280;45528;52.102;5.242;2024-02-16T13:03:26;101033.0;;;18.88;63.54
32452;BME280;45528;52.102;5.242;2024-02-16T13:11:26;101044.0;;;18.04;65.31
32452;BME280;45528;52.102;5.242;2024-02-16T13:14:39;101049.0;;;18.72;63.77
32452;BME280;45528;52.102;5.242;2024-02-16T13:17:51;101061.0;;;18.63;63.72
32452;BME280;45528;52.102;5.242;2024-02-16T13:21:03;101064.0;;;18.82;63.45
32452;BME280;45528;52.102;5.242;2024-02-16T13:30:40;101083.0;;;18.77;62.85
32452;BME280;45528;52.102;5.242;2024-02-16T13:35:29;101080.0;;;18.77;62.38
32452;BME280;45528;52.102;5.242;2024-02-16T13:37:05;101078.0;;;18.77;62.46
32452;BME280;45528;52.102;5.242;2024-02-16T13:38:41;101083.0;;;18.47;63.31
32452;BME280;45528;52.102;5.242;2024-02-16T13:41:53;101081.0;;;18.62;62.97
32452;BME280;45528;52.102;5.242;2024-02-16T13:43:30;101095.0;;;18.36;64.06
32452;BME280;45528;52.102;5.242;2024-02-16T13:49:58;101094.0;;;18.46;63.51
32452;BME280;45528;52.102;5.242;2024-02-16T13:51:34;101097.0;;;18.38;63.27
32452;BME280;45528;52.102;5.242;2024-02-16T13:56:22;101114.0;;;18.47;63.58
32452;BME280;45528;52.102;5.242;2024-02-16T13:58:04;101127.0;;;18.28;63.84
32452;BME280;45528;52.102;5.242;2024-02-16T13:59:40;101127.0;;;18.62;63.22
32452;BME280;45528;52.102;5.242;2024-02-16T14:06:05;101132.0;;;18.34;63.7
32452;BME280;45528;52.102;5.242;2024-02-16T14:09:18;101132.0;;;17.86;65.05
32452;BME280;45528;52.102;5.242;2024-02-16T14:12:30;101140.0;;;18.59;62.99
32452;BME280;45528;52.102;5.242;2024-02-16T14:15:44;101141.0;;;18.38;63.29
32452;BME280;45528;52.102;5.242;2024-02-16T14:17:20;101140.0;;;18.57;63.21
32452;BME280;45528;52.102;5.242;2024-02-16T14:18:55;101137.0;;;18.53;62.96
32452;BME280;45528;52.102;5.242;2024-02-16T14:25:20;101149.0;;;18.89;62.2
32452;BME280;45528;52.102;5.242;2024-02-16T14:30:11;101156.0;;;18.93;62.07
32452;BME280;45528;52.102;5.242;2024-02-16T14:33:23;101162.0;;;18.7;62.32
32452;BME280;45528;52.102;5.242;2024-02-16T14:36:36;101163.0;;;18.75;62.64
32452;BME280;45528;52.102;5.242;2024-02-16T14:38:12;101167.0;;;18.75;62.55
32452;BME280;45528;52.102;5.242;2024-02-16T14:44:37;101181.0;;;18.8;62.2
32452;BME280;45528;52.102;5.242;2024-02-16T14:46:14;101188.0;;;18.62;62.16
32452;BME280;45528;52.102;5.242;2024-02-16T14:51:03;101193.0;;;18.52;62.7
32452;BME280;45528;52.102;5.242;2024-02-16T14:52:39;101193.0;;;18.84;61.46
32452;BME280;45528;52.102;5.242;2024-02-16T14:54:15;101194.0;;;18.95;61.54
32452;BME280;45528;52.102;5.242;2024-02-16T14:57:27;101193.0;;;19.06;61.16
32452;BME280;45528;52.102;5.242;2024-02-16T15:00:40;101200.0;;;18.59;62.11
32452;BME280;45528;52.102;5.242;2024-02-16T15:02:17;101205.0;;;18.56;62.15
32452;BME280;45528;52.102;5.242;2024-02-16T15:11:56;101217.0;;;19.02;61.04
32452;BME280;45528;52.102;5.242;2024-02-16T15:13:32;101225.0;;;18.82;61.28
32452;BME280;45528;52.102;5.242;2024-02-16T15:15:09;101228.0;;;18.71;61.8
32452;BME280;45528;52.102;5.242;2024-02-16T15:21:33;101234.0;;;18.93;61.08
32452;BME280;45528;52.102;5.242;2024-02-16T15:24:45;101238.0;;;18.91;61.17
32452;BME280;45528;52.102;5.242;2024-02-16T15:26:21;101241.0;;;18.97;60.71
32452;BME280;45528;52.102;5.242;2024-02-16T15:32:46;101242.0;;;18.88;60.97
32452;BME280;45528;52.102;5.242;2024-02-16T15:34:22;101255.0;;;18.84;60.99
32452;BME280;45528;52.102;5.242;2024-02-16T15:39:11;101259.0;;;18.96;60.69
32452;BME280;45528;52.102;5.242;2024-02-16T15:42:27;101257.0;;;19.12;60.24
32452;BME280;45528;52.102;5.242;2024-02-16T15:45:39;101256.0;;;19.11;60.14
32452;BME280;45528;52.102;5.242;2024-02-16T15:47:15;101262.0;;;19.05;60.24
32452;BME280;45528;52.102;5.242;2024-02-16T15:48:52;101262.0;;;18.96;60.22
32452;BME280;45528;52.102;5.242;2024-02-16T15:55:17;101268.0;;;19.14;59.9
32452;BME280;45528;52.102;5.242;2024-02-16T16:00:06;101284.0;;;19.14;59.76
32452;BME280;45528;52.102;5.242;2024-02-16T16:01:43;101280.0;;;19.18;59.74
32452;BME280;45528;52.102;5.242;2024-02-16T16:06:32;101293.0;;;19.29;59.56
32452;BME280;45528;52.102;5.242;2024-02-16T16:08:10;101297.0;;;19.5;59.04
32452;BME280;45528;52.102;5.242;2024-02-16T16:09:46;101295.0;;;19.25;59.83
32452;BME280;45528;52.102;5.242;2024-02-16T16:11:22;101305.0;;;19.41;59.47
32452;BME280;45528;52.102;5.242;2024-02-16T16:16:11;101307.0;;;19.39;59.33
32452;BME280;45528;52.102;5.242;2024-02-16T16:17:47;101316.0;;;18.95;60.48
32452;BME280;45528;52.102;5.242;2024-02-16T16:27:25;101330.0;;;19.07;60.56
32452;BME280;45528;52.102;5.242;2024-02-16T16:35:25;101349.0;;;19.04;60.59
32452;BME280;45528;52.102;5.242;2024-02-16T16:38:38;101356.0;;;19.0;60.54
32452;BME280;45528;52.102;5.242;2024-02-16T16:41:50;101363.0;;;18.84;61.01
32452;BME280;45528;52.102;5.242;2024-02-16T16:43:26;101361.0;;;18.66;60.84
32452;BME280;45528;52.102;5.242;2024-02-16T16:45:02;101367.0;;;18.71;61.04
32452;BME280;45528;52.102;5.242;2024-02-16T16:49:52;101372.0;;;18.77;60.61
32452;BME280;45528;52.102;5.242;2024-02-16T16:51:27;101374.0;;;18.91;60.18
32452;BME280;45528;52.102;5.242;2024-02-16T16:54:40;101382.0;;;19.03;59.92
32452;BME280;45528;52.102;5.242;2024-02-16T16:56:16;101382.0;;;18.93;60.06
32452;BME280;45528;52.102;5.242;2024-02-16T16:57:55;101386.0;;;18.91;60.08
32452;BME280;45528;52.102;5.242;2024-02-16T16:59:31;101391.0;;;18.95;60.23
32452;BME280;45528;52.102;5.242;2024-02-16T17:02:44;101397.0;;;19.05;59.8
32452;BME280;45528;52.102;5.242;2024-02-16T17:04:20;101401.0;;;19.0;59.89
32452;BME280;45528;52.102;5.242;2024-02-16T17:17:09;101427.0;;;18.88;59.79
32452;BME280;45528;52.102;5.242;2024-02-16T17:20:22;101430.0;;;18.52;60.35
32452;BME280;45528;52.102;5.242;2024-02-16T17:25:10;101444.0;;;18.63;60.09
32452;BME280;45528;52.102;5.242;2024-02-16T17:26:46;101443.0;;;18.59;59.94
32452;BME280;45528;52.102;5.242;2024-02-16T17:29:58;101451.0;;;18.41;60.31
32452;BME280;45528;52.102;5.242;2024-02-16T17:39:35;101470.0;;;18.64;59.68
32452;BME280;45528;52.102;5.242;2024-02-16T17:44:23;101473.0;;;18.7;59.28
32452;BME280;45528;52.102;5.242;2024-02-16T17:45:59;101476.0;;;18.72;59.12
32452;BME280;45528;52.102;5.242;2024-02-16T17:50:48;101486.0;;;18.64;59.5
32452;BME280;45528;52.102;5.242;2024-02-16T17:54:02;101490.0;;;18.78;58.94
32452;BME280;45528;52.102;5.242;2024-02-16T18:00:26;101503.0;;;18.68;59.15
32452;BME280;45528;52.102;5.242;2024-02-16T18:06:53;101511.0;;;18.64;59.67
32452;BME280;45528;52.102;5.242;2024-02-16T18:11:43;101516.0;;;18.5;59.91
32452;BME280;45528;52.102;5.242;2024-02-16T18:14:55;101524.0;;;18.56;59.46
32452;BME280;45528;52.102;5.242;2024-02-16T18:24:31;101532.0;;;18.23;59.95
32452;BME280;45528;52.102;5.242;2024-02-16T18:30:56;101552.0;;;17.95;59.94
32452;BME280;45528;52.102;5.242;2024-02-16T18:32:32;101546.0;;;17.87;60.14
32452;BME280;45528;52.102;5.242;2024-02-16T18:34:08;101558.0;;;18.03;59.81
32452;BME280;45528;52.102;5.242;2024-02-16T18:40:32;101568.0;;;18.18;59.29
32452;BME280;45528;52.102;5.242;2024-02-16T18:45:21;101580.0;;;18.27;59.07
32452;BME280;45528;52.102;5.242;2024-02-16T18:53:25;101589.0;;;18.27;58.83
32452;BME280;45528;52.102;5.242;2024-02-16T19:03:02;101600.0;;;17.87;60.01
32452;BME280;45528;52.102;5.242;2024-02-16T19:06:14;101601.0;;;17.78;60.37
32452;BME280;45528;52.102;5.242;2024-02-16T19:07:50;101596.0;;;18.0;59.4
32452;BME280;45528;52.102;5.242;2024-02-16T19:14:15;101613.0;;;18.02;59.76
32452;BME280;45528;52.102;5.242;2024-02-16T19:23:51;101630.0;;;18.11;59.56